Time;durP1;ratioP1;P1;durP2;ratioP2;P2;SDS_P1;SDS_P2;PMS_P1;PMS_P2;Temp;Humidity;BMP_temperature;BMP_pressure;BME280_temperature;BME280_humidity;BME280_pressure;Samples;Min_cycle;Max_cycle;Signal;HPM_P1;HPM_P2
2022/12/17 13:06:42;;;;;;;;;;;;;;;28.54;48.95;96919.58;610498;232;65331;-68
2022/12/17 13:09:14;;;;;;;;;;;;;;;28.57;45.80;96917.35;610506;232;67247;-68
2022/12/17 13:11:47;;;;;;;;;;;;;;;28.57;48.54;96918.14;601902;232;66764;-68
2022/12/17 13:14:31;;;;;;;;;;;;;;;28.59;48.47;96915.09;610462;232;63169;-68
2022/12/17 13:17:16;;;;;;;;;;;;;;;28.59;47.77;96918.59;610497;232;67214;-68
2022/12/17 13:19:46;;;;;;;;;;;;;;;28.62;48.39;96922.55;610468;232;67170;-68
2022/12/17 13:22:18;;;;;;;;;;;;;;;28.63;47.10;96930.36;610449;232;67648;-68
2022/12/17 13:24:46;;;;;;;;;;;;;;;28.66;46.84;96928.92;610477;232;64886;-69
2022/12/17 13:27:29;;;;;;;;;;;;;;;28.67;47.29;96931.28;610525;232;67201;-69
2022/12/17 13:29:57;;;;;;;;;;;;;;;28.67;48.13;96920.47;610494;232;62974;-69
2022/12/17 13:32:32;;;;;;;;;;;;;;;28.68;48.57;96927.48;610492;232;65079;-69
2022/12/17 13:35:17;;;;;;;;;;;;;;;28.69;47.15;96923.65;610516;232;64843;-69
2022/12/17 13:37:58;;;;;;;;;;;;;;;28.71;47.71;96920.64;610498;232;63159;-70
2022/12/17 13:40:43;;;;;;;;;;;;;;;28.74;49.78;96926.18;610344;232;67066;-68
2022/12/17 13:43:17;;;;;;;;;;;;;;;28.74;48.68;96914.58;610481;232;67066;-68
2022/12/17 13:45:45;;;;;;;;;;;;;;;28.76;48.45;96912.34;610466;232;63116;-68
2022/12/17 13:48:22;;;;;;;;;;;;;;;28.77;47.75;96908.52;610463;232;65442;-68
2022/12/17 13:50:54;;;;;;;;;;;;;;;28.79;47.20;96913.61;610472;232;64926;-68
2022/12/17 13:53:22;;;;;;;;;;;;;;;28.82;47.79;96911.05;610478;232;65327;-69
2022/12/17 13:55:51;;;;;;;;;;;;;;;28.82;48.83;96910.25;610484;232;67871;-69
2022/12/17 13:58:20;;;;;;;;;;;;;;;28.84;47.58;96897.17;610438;232;67238;-68
2022/12/17 14:00:48;;;;;;;;;;;;;;;28.84;47.25;96906.11;610231;232;65096;-69
2022/12/17 14:03:19;;;;;;;;;;;;;;;28.85;48.44;96918.50;610502;232;67079;-69
2022/12/17 14:05:47;;;;;;;;;;;;;;;28.85;45.68;96923.91;610487;232;67078;-69
2022/12/17 14:08:16;;;;;;;;;;;;;;;28.87;48.02;96942.53;610473;232;64996;-69
2022/12/17 14:12:20;;;;;;;;;;;;;;;28.88;47.07;96944.90;610440;232;67275;-69
2022/12/17 14:13:26;;;;;;;;;;;;;;;28.89;44.91;96943.80;609688;232;64932;-69
2022/12/17 14:15:54;;;;;;;;;;;;;;;28.91;48.26;96946.95;610466;232;62964;-68
2022/12/17 14:18:22;;;;;;;;;;;;;;;28.92;48.55;96943.14;610455;232;67304;-67
2022/12/17 14:20:51;;;;;;;;;;;;;;;28.93;46.15;96949.34;610484;232;67042;-67
2022/12/17 14:23:20;;;;;;;;;;;;;;;28.94;47.05;96959.83;610427;232;63067;-67
2022/12/17 14:25:48;;;;;;;;;;;;;;;28.95;46.83;96974.17;610319;232;67647;-67
2022/12/17 14:28:23;;;;;;;;;;;;;;;28.95;47.41;96980.37;609940;232;66611;-67
2022/12/17 14:30:53;;;;;;;;;;;;;;;28.95;47.74;96991.19;608861;233;62910;-68
2022/12/17 14:33:27;;;;;;;;;;;;;;;28.95;47.70;96991.19;608819;233;64711;-69
2022/12/17 14:35:56;;;;;;;;;;;;;;;28.96;48.63;96998.17;608837;233;64906;-68
2022/12/17 14:38:24;;;;;;;;;;;;;;;28.95;47.70;96993.89;608855;233;65067;-68
2022/12/17 14:40:52;;;;;;;;;;;;;;;28.96;47.22;97009.00;608869;233;67158;-68
2022/12/17 14:43:24;;;;;;;;;;;;;;;28.96;48.98;97013.62;608866;233;66707;-68
2022/12/17 14:51:26;;;;;;;;;;;;;;;28.97;47.54;97034.95;608835;233;66933;-68
2022/12/17 14:53:54;;;;;;;;;;;;;;;28.98;48.39;97038.45;608762;232;65046;-68
2022/12/17 14:56:23;;;;;;;;;;;;;;;28.97;47.66;97032.25;608287;232;67054;-68
2022/12/17 14:58:50;;;;;;;;;;;;;;;28.97;49.11;97040.36;608835;233;67039;-68
2022/12/17 15:01:18;;;;;;;;;;;;;;;28.97;48.91;97040.36;608775;233;64938;-68
2022/12/17 15:03:45;;;;;;;;;;;;;;;28.98;49.65;97039.23;608825;233;67212;-68
2022/12/17 15:06:14;;;;;;;;;;;;;;;28.98;48.73;97043.86;608821;233;67024;-68
2022/12/17 15:08:43;;;;;;;;;;;;;;;28.98;46.93;97049.27;608802;233;65196;-68
2022/12/17 15:11:16;;;;;;;;;;;;;;;28.99;46.72;97061.66;608826;233;67275;-68
2022/12/17 15:13:43;;;;;;;;;;;;;;;28.99;48.73;97078.69;608817;233;65156;-68
2022/12/17 15:16:13;;;;;;;;;;;;;;;28.98;47.75;97082.52;608815;233;64995;-68
2022/12/17 15:18:40;;;;;;;;;;;;;;;28.98;47.80;97079.81;608842;233;67278;-69
2022/12/17 15:21:09;;;;;;;;;;;;;;;28.99;48.87;97104.95;608843;233;67034;-69
2022/12/17 15:23:38;;;;;;;;;;;;;;;28.98;48.63;97098.75;608647;233;65075;-68
2022/12/17 15:26:07;;;;;;;;;;;;;;;28.98;48.59;97109.58;608726;233;65000;-68
2022/12/17 15:28:34;;;;;;;;;;;;;;;28.98;49.16;97119.61;608797;232;67149;-68
2022/12/17 15:31:01;;;;;;;;;;;;;;;28.97;47.83;97129.64;608833;233;65187;-68
2022/12/17 15:33:29;;;;;;;;;;;;;;;28.96;47.03;97133.44;608829;233;67065;-68
2022/12/17 15:35:57;;;;;;;;;;;;;;;28.96;49.99;97144.27;608815;233;67025;-68
2022/12/17 15:38:26;;;;;;;;;;;;;;;28.95;49.71;97148.09;608873;233;65061;-68
2022/12/17 15:40:54;;;;;;;;;;;;;;;28.95;47.92;97152.72;608823;233;67199;-68
2022/12/17 15:43:22;;;;;;;;;;;;;;;28.96;46.71;97157.00;608603;233;66881;-68
2022/12/17 15:45:51;;;;;;;;;;;;;;;28.95;49.53;97164.33;608824;233;62955;-68
2022/12/17 15:48:20;;;;;;;;;;;;;;;28.95;48.45;97164.33;608819;233;64945;-68
2022/12/17 15:50:48;;;;;;;;;;;;;;;28.96;48.79;97176.72;608846;233;69224;-68
2022/12/17 15:53:16;;;;;;;;;;;;;;;28.95;49.62;97193.30;608836;233;63623;-68
2022/12/17 15:55:43;;;;;;;;;;;;;;;28.95;48.87;97201.41;608851;233;67362;-69
2022/12/17 15:58:10;;;;;;;;;;;;;;;28.95;48.26;97196.00;608870;233;64971;-68
2022/12/17 16:00:38;;;;;;;;;;;;;;;28.94;50.32;97206.00;608850;233;62894;-68
2022/12/17 16:03:05;;;;;;;;;;;;;;;28.94;46.96;97211.41;608867;233;65055;-68
2022/12/17 16:05:33;;;;;;;;;;;;;;;28.95;47.47;97209.52;608597;233;67017;-68
2022/12/17 16:08:01;;;;;;;;;;;;;;;28.95;47.67;97215.73;608884;233;65115;-68
2022/12/17 16:10:29;;;;;;;;;;;;;;;28.95;49.38;97223.05;608862;233;66607;-68
2022/12/17 16:12:57;;;;;;;;;;;;;;;28.95;50.01;97228.46;608824;233;67651;-68
2022/12/17 16:15:25;;;;;;;;;;;;;;;28.94;49.04;97238.47;608826;233;65079;-68
2022/12/17 16:17:52;;;;;;;;;;;;;;;28.94;47.47;97238.47;608884;233;68830;-68
2022/12/17 16:20:19;;;;;;;;;;;;;;;28.93;50.41;97236.88;608861;233;67052;-68
2022/12/17 16:22:47;;;;;;;;;;;;;;;28.93;48.40;97242.30;608838;233;65071;-68
2022/12/17 16:25:14;;;;;;;;;;;;;;;28.93;49.84;97236.88;608864;233;67260;-68
2022/12/17 16:27:42;;;;;;;;;;;;;;;28.95;44.16;97239.28;608774;232;67062;-68
2022/12/17 16:30:10;;;;;;;;;;;;;;;28.97;48.00;97251.38;610507;232;65060;-68
2022/12/17 16:32:39;;;;;;;;;;;;;;;28.98;47.73;97257.58;610501;232;67277;-68
2022/12/17 16:35:06;;;;;;;;;;;;;;;28.97;46.66;97264.09;610485;232;67035;-68
2022/12/17 16:37:34;;;;;;;;;;;;;;;28.98;46.43;97265.70;610486;232;64846;-68
2022/12/17 16:40:01;;;;;;;;;;;;;;;28.97;48.13;97273.02;610468;232;67261;-69
2022/12/17 16:42:29;;;;;;;;;;;;;;;28.98;47.05;97277.31;610539;232;67305;-69
2022/12/17 16:44:57;;;;;;;;;;;;;;;28.98;48.71;97281.94;610461;232;65134;-68
2022/12/17 16:47:24;;;;;;;;;;;;;;;28.99;49.14;97278.10;610223;232;67305;-68
2022/12/17 16:49:51;;;;;;;;;;;;;;;28.97;47.90;97289.26;610463;232;67057;-68
2022/12/17 16:52:19;;;;;;;;;;;;;;;28.98;48.19;97290.84;610483;232;65050;-68
2022/12/17 16:54:47;;;;;;;;;;;;;;;28.97;46.27;97286.55;610531;232;64926;-68
2022/12/17 16:57:14;;;;;;;;;;;;;;;28.98;47.28;97290.84;610491;232;66849;-68
2022/12/17 16:59:42;;;;;;;;;;;;;;;28.99;48.77;97288.92;610471;232;65295;-68
2022/12/17 17:02:11;;;;;;;;;;;;;;;28.99;45.13;97295.13;610499;232;67251;-69
2022/12/17 17:04:39;;;;;;;;;;;;;;;29.01;48.05;97299.44;610241;232;67219;-68
2022/12/17 17:07:06;;;;;;;;;;;;;;;28.99;48.09;97294.34;610288;232;65115;-68
2022/12/17 17:09:33;;;;;;;;;;;;;;;28.98;48.03;97307.07;610540;232;65863;-68
2022/12/17 17:12:01;;;;;;;;;;;;;;;28.99;49.01;97316.77;610457;232;64956;-68
2022/12/17 17:14:28;;;;;;;;;;;;;;;29.00;47.29;97312.15;610490;232;62918;-68
2022/12/17 17:16:56;;;;;;;;;;;;;;;28.98;48.42;97315.19;610489;232;64804;-68
2022/12/17 17:19:24;;;;;;;;;;;;;;;28.99;47.52;97319.48;610467;232;64947;-68
2022/12/17 17:21:53;;;;;;;;;;;;;;;28.99;46.86;97333.00;610569;232;64937;-68
2022/12/17 17:24:22;;;;;;;;;;;;;;;28.99;49.17;97335.71;610435;232;66917;-68
2022/12/17 17:26:51;;;;;;;;;;;;;;;28.98;48.75;97333.34;610261;232;64943;-69
2022/12/17 17:29:19;;;;;;;;;;;;;;;28.98;47.66;97336.83;609132;232;65056;-68
2022/12/17 17:31:46;;;;;;;;;;;;;;;28.98;50.45;97342.24;608829;233;67478;-68
2022/12/17 17:34:14;;;;;;;;;;;;;;;28.97;48.96;97337.13;608888;233;67154;-68
2022/12/17 17:36:42;;;;;;;;;;;;;;;28.97;48.52;97342.55;608834;233;65299;-68
2022/12/17 17:39:09;;;;;;;;;;;;;;;28.97;47.23;97350.66;608829;233;67278;-68
2022/12/17 17:41:40;;;;;;;;;;;;;;;28.98;49.31;97352.28;608851;233;65616;-68
2022/12/17 17:44:09;;;;;;;;;;;;;;;28.99;48.42;97353.86;608777;233;62872;-68
2022/12/17 17:46:36;;;;;;;;;;;;;;;28.97;50.09;97359.60;608931;233;67207;-68
2022/12/17 17:49:05;;;;;;;;;;;;;;;28.97;48.19;97356.89;608561;233;64715;-68
2022/12/17 17:51:34;;;;;;;;;;;;;;;28.97;49.17;97367.72;608788;233;65122;-68
2022/12/17 17:54:03;;;;;;;;;;;;;;;28.97;48.73;97361.48;608826;233;65022;-68
2022/12/17 17:56:32;;;;;;;;;;;;;;;28.98;47.35;97368.51;608714;233;64943;-68
2022/12/17 17:59:01;;;;;;;;;;;;;;;28.96;48.49;97374.22;608849;233;65176;-68
2022/12/17 18:01:30;;;;;;;;;;;;;;;28.96;48.59;97368.81;608823;233;65008;-68
2022/12/17 18:03:59;;;;;;;;;;;;;;;28.95;49.10;97367.23;608817;233;67233;-68
2022/12/17 18:06:30;;;;;;;;;;;;;;;28.95;47.90;97369.94;608839;233;65077;-68
2022/12/17 18:08:58;;;;;;;;;;;;;;;28.95;49.54;97371.84;608842;233;67374;-68
2022/12/17 18:11:26;;;;;;;;;;;;;;;28.94;49.09;97371.02;608896;233;66837;-68
2022/12/17 18:13:56;;;;;;;;;;;;;;;28.95;49.50;97377.26;608843;233;62988;-68
2022/12/17 18:16:29;;;;;;;;;;;;;;;28.93;49.28;97377.56;608820;233;67278;-68
2022/12/17 18:19:02;;;;;;;;;;;;;;;28.92;47.87;97373.27;608652;232;65176;-68
2022/12/17 18:21:32;;;;;;;;;;;;;;;28.92;48.48;97386.80;608832;233;43933;-69
2022/12/17 18:24:01;;;;;;;;;;;;;;;28.92;49.13;97388.69;608828;233;65089;-69
2022/12/17 18:26:30;;;;;;;;;;;;;;;28.92;49.74;97386.80;608910;233;65000;-69
2022/12/17 18:29:05;;;;;;;;;;;;;;;28.91;48.52;97393.30;608808;232;64983;-69
2022/12/17 18:31:30;;;;;;;;;;;;;;;28.90;47.51;97389.02;608611;232;67980;-69
2022/12/17 18:34:02;;;;;;;;;;;;;;;28.90;49.19;97402.54;608893;233;66762;-69
2022/12/17 18:36:30;;;;;;;;;;;;;;;28.89;47.46;97402.84;608903;233;65170;-69
2022/12/17 18:38:59;;;;;;;;;;;;;;;28.89;48.72;97406.37;608852;233;66799;-69
2022/12/17 18:44:12;;;;;;;;;;;;;;;28.88;49.42;97415.58;608838;233;65082;-69
2022/12/17 18:46:39;;;;;;;;;;;;;;;28.85;49.42;97421.61;608845;233;67137;-69
2022/12/17 18:49:09;;;;;;;;;;;;;;;28.85;48.97;97416.20;608853;233;66751;-69
2022/12/17 18:51:37;;;;;;;;;;;;;;;28.86;49.02;97434.02;608855;233;65097;-67
2022/12/17 18:54:09;;;;;;;;;;;;;;;28.85;48.70;97424.32;608814;233;66997;-67
2022/12/17 18:56:36;;;;;;;;;;;;;;;28.84;49.73;97433.55;608909;233;66909;-67
2022/12/17 18:59:04;;;;;;;;;;;;;;;28.84;50.61;97438.14;608839;233;63033;-67
2022/12/17 19:01:33;;;;;;;;;;;;;;;28.83;48.70;97437.34;608857;233;67137;-67
2022/12/17 19:04:04;;;;;;;;;;;;;;;28.83;49.07;97436.56;608841;233;67065;-67
2022/12/17 19:06:33;;;;;;;;;;;;;;;28.82;48.51;97445.80;608818;233;63011;-68
2022/12/17 19:09:01;;;;;;;;;;;;;;;28.82;49.80;97443.09;608857;233;67298;-68
2022/12/17 19:11:29;;;;;;;;;;;;;;;28.80;49.28;97446.09;608841;233;64830;-68
2022/12/17 19:13:59;;;;;;;;;;;;;;;28.81;48.16;97442.30;608856;233;64952;-68
2022/12/17 19:16:28;;;;;;;;;;;;;;;28.79;48.45;97446.42;608833;233;67411;-70
2022/12/17 19:18:56;;;;;;;;;;;;;;;28.78;48.47;97453.72;608802;233;66992;-68
2022/12/17 19:21:24;;;;;;;;;;;;;;;28.79;48.89;97452.63;608876;233;65033;-68
2022/12/17 19:23:53;;;;;;;;;;;;;;;28.78;49.53;97459.12;608822;233;67233;-68
2022/12/17 19:26:21;;;;;;;;;;;;;;;28.77;49.93;97457.54;608819;232;64722;-69
2022/12/17 19:28:50;;;;;;;;;;;;;;;28.75;48.38;97463.25;608802;233;62988;-69
2022/12/17 19:31:18;;;;;;;;;;;;;;;28.76;49.38;97462.16;608834;233;64942;-69
2022/12/17 19:33:45;;;;;;;;;;;;;;;28.75;49.04;97465.95;608795;233;67384;-69
2022/12/17 19:36:15;;;;;;;;;;;;;;;28.74;48.58;97469.77;608880;233;65270;-69
2022/12/17 19:38:43;;;;;;;;;;;;;;;28.74;47.89;97466.28;608841;233;67328;-69
2022/12/17 19:41:16;;;;;;;;;;;;;;;28.74;47.91;97471.69;608848;233;67038;-69
2022/12/17 19:43:44;;;;;;;;;;;;;;;28.72;48.16;97466.58;608837;233;63011;-68
2022/12/17 19:46:16;;;;;;;;;;;;;;;28.73;48.47;97467.40;608815;233;67082;-69
2022/12/17 19:48:44;;;;;;;;;;;;;;;28.71;50.07;97464.20;608867;233;67059;-70
2022/12/17 19:51:13;;;;;;;;;;;;;;;28.71;47.69;97472.31;608856;233;65058;-70
2022/12/17 19:53:41;;;;;;;;;;;;;;;28.72;47.97;97482.02;608829;233;67020;-69
2022/12/17 19:56:16;;;;;;;;;;;;;;;28.70;48.59;97471.52;608862;233;66891;-67
2022/12/17 19:58:46;;;;;;;;;;;;;;;28.70;47.80;97478.81;608780;233;65053;-69
2022/12/17 20:01:15;;;;;;;;;;;;;;;28.68;48.78;97473.73;608839;233;67442;-68
2022/12/17 20:03:43;;;;;;;;;;;;;;;28.69;48.48;97485.34;608883;233;64971;-68
2022/12/17 20:06:12;;;;;;;;;;;;;;;28.68;48.69;97494.58;608836;233;63178;-68
2022/12/17 20:08:40;;;;;;;;;;;;;;;28.67;48.99;97499.16;608833;233;67271;-68
2022/12/17 20:14:02;;;;;;;;;;;;;;;28.66;49.23;97502.19;608840;233;62996;-68
2022/12/17 20:16:31;;;;;;;;;;;;;;;28.66;48.25;97510.30;608799;233;65002;-68
2022/12/17 20:18:59;;;;;;;;;;;;;;;28.64;48.30;97502.48;608789;233;64936;-69
2022/12/17 20:21:27;;;;;;;;;;;;;;;28.64;48.38;97510.59;608789;233;65060;-68
2022/12/17 20:23:55;;;;;;;;;;;;;;;28.64;48.38;97507.10;608808;233;67358;-68
2022/12/17 20:26:23;;;;;;;;;;;;;;;28.63;48.80;97519.04;608808;233;67091;-68
2022/12/17 20:28:50;;;;;;;;;;;;;;;28.62;48.07;97512.02;608810;232;65034;-68
2022/12/17 20:31:18;;;;;;;;;;;;;;;28.61;50.24;97521.24;608872;233;67243;-68
2022/12/17 20:33:45;;;;;;;;;;;;;;;28.60;48.34;97519.66;608870;233;67077;-68
2022/12/17 20:36:14;;;;;;;;;;;;;;;28.60;49.36;97514.25;608829;233;65096;-68
2022/12/17 20:38:42;;;;;;;;;;;;;;;28.59;48.54;97509.93;608872;233;67246;-68
2022/12/17 20:41:10;;;;;;;;;;;;;;;28.59;48.82;97518.05;608881;233;66885;-68
2022/12/17 20:43:38;;;;;;;;;;;;;;;28.59;49.27;97523.45;608894;233;65393;-68
2022/12/17 20:46:08;;;;;;;;;;;;;;;28.57;48.53;97525.69;608866;233;67272;-68
2022/12/17 20:48:37;;;;;;;;;;;;;;;28.55;48.48;97534.09;608756;233;65465;-68
2022/12/17 20:51:09;;;;;;;;;;;;;;;28.56;49.49;97535.68;608597;232;65061;-67
2022/12/17 20:53:37;;;;;;;;;;;;;;;28.54;49.22;97538.70;608864;233;67328;-67
2022/12/17 20:56:06;;;;;;;;;;;;;;;28.54;48.83;97543.32;608839;233;67054;-67
2022/12/17 20:58:33;;;;;;;;;;;;;;;28.52;49.13;97535.51;608914;233;63002;-68
2022/12/17 21:01:02;;;;;;;;;;;;;;;28.52;49.62;97546.32;608819;233;64815;-68
2022/12/17 21:03:31;;;;;;;;;;;;;;;28.50;48.96;97559.34;608841;233;66934;-68
2022/12/17 21:06:06;;;;;;;;;;;;;;;28.50;49.64;97553.93;608886;233;65000;-68
2022/12/17 21:08:34;;;;;;;;;;;;;;;28.50;49.17;97559.34;606275;233;65657;-68
2022/12/17 21:11:01;;;;;;;;;;;;;;;28.47;48.72;97557.25;608894;233;65082;-68
2022/12/17 21:13:29;;;;;;;;;;;;;;;28.47;48.62;97570.77;608828;233;63019;-67
2022/12/17 21:15:58;;;;;;;;;;;;;;;28.46;48.90;97558.38;608845;233;67464;-68
2022/12/17 21:18:25;;;;;;;;;;;;;;;28.45;48.52;97561.37;608850;233;67077;-68
2022/12/17 21:20:57;;;;;;;;;;;;;;;28.45;49.15;97566.78;608866;233;65123;-68
2022/12/17 21:23:24;;;;;;;;;;;;;;;28.44;49.45;97560.58;608844;233;64981;-67
2022/12/17 21:25:59;;;;;;;;;;;;;;;28.43;48.96;97558.98;608879;233;67111;-67
2022/12/17 21:28:27;;;;;;;;;;;;;;;28.42;48.28;97557.34;609519;232;65150;-67
2022/12/17 21:30:54;;;;;;;;;;;;;;;28.42;49.02;97562.75;610515;232;67218;-68
2022/12/17 21:33:22;;;;;;;;;;;;;;;28.40;49.48;97559.58;610472;232;66968;-67
2022/12/17 21:35:49;;;;;;;;;;;;;;;28.40;49.50;97564.16;610480;232;62926;-67
2022/12/17 21:38:17;;;;;;;;;;;;;;;28.39;49.38;97562.57;610511;232;67235;-67
2022/12/17 21:40:44;;;;;;;;;;;;;;;28.38;49.85;97566.39;610448;232;64906;-67
2022/12/17 21:43:12;;;;;;;;;;;;;;;28.35;49.18;97565.09;610495;232;63156;-68
2022/12/17 21:45:41;;;;;;;;;;;;;;;28.37;50.12;97570.18;610489;232;65045;-67
2022/12/17 21:48:10;;;;;;;;;;;;;;;28.34;49.30;97572.38;610466;232;67121;-67
2022/12/17 21:50:42;;;;;;;;;;;;;;;28.34;50.01;97571.59;610513;232;65052;-67
2022/12/17 21:53:10;;;;;;;;;;;;;;;28.33;50.65;97575.41;610308;232;67361;-67
2022/12/17 21:55:37;;;;;;;;;;;;;;;28.31;50.04;97573.00;610506;232;66864;-68
2022/12/17 21:58:05;;;;;;;;;;;;;;;28.30;50.32;97581.42;610493;232;65062;-68
2022/12/17 22:00:32;;;;;;;;;;;;;;;28.28;50.24;97581.72;610463;232;67290;-67
2022/12/17 22:03:00;;;;;;;;;;;;;;;28.28;50.08;97589.03;610478;232;67332;-67
2022/12/17 22:05:28;;;;;;;;;;;;;;;28.26;50.78;97586.63;610532;232;65034;-67
2022/12/17 22:07:55;;;;;;;;;;;;;;;28.28;50.64;97594.44;610447;232;67205;-68
2022/12/17 22:10:23;;;;;;;;;;;;;;;28.25;50.61;97587.73;610501;232;66987;-68
2022/12/17 22:15:38;;;;;;;;;;;;;;;28.23;49.92;97598.05;610483;232;65089;-67
2022/12/17 22:18:06;;;;;;;;;;;;;;;28.23;50.95;97608.06;610446;232;65079;-68
2022/12/17 22:20:33;;;;;;;;;;;;;;;28.21;51.50;97599.45;610554;232;62999;-67
2022/12/17 22:23:01;;;;;;;;;;;;;;;28.21;50.87;97613.79;610480;232;64824;-68
2022/12/17 22:25:29;;;;;;;;;;;;;;;28.20;50.98;97616.78;610496;232;64858;-67
2022/12/17 22:27:56;;;;;;;;;;;;;;;28.18;50.54;97617.07;610062;232;63813;-68
2022/12/17 22:33:09;;;;;;;;;;;;;;;28.16;51.10;97624.70;608900;233;64726;-68
2022/12/17 22:35:41;;;;;;;;;;;;;;;28.15;50.75;97627.70;608845;233;65169;-68
2022/12/17 22:38:07;;;;;;;;;;;;;;;28.14;50.67;97629.61;608802;233;71718;-67
2022/12/17 22:40:36;;;;;;;;;;;;;;;28.12;51.67;97639.91;608849;233;67035;-67
2022/12/17 22:45:49;;;;;;;;;;;;;;;28.10;51.35;97639.41;608888;233;67012;-67
2022/12/17 22:48:17;;;;;;;;;;;;;;;28.08;50.85;97650.53;608909;233;66876;-67
2022/12/17 22:50:44;;;;;;;;;;;;;;;28.07;51.21;97648.95;608859;233;65089;-67
2022/12/17 22:53:12;;;;;;;;;;;;;;;28.07;52.30;97646.24;608851;233;67111;-67
2022/12/17 22:55:39;;;;;;;;;;;;;;;28.06;50.48;97643.83;608854;233;67462;-67
2022/12/17 22:58:07;;;;;;;;;;;;;;;28.06;51.54;97652.73;608862;233;65217;-67
2022/12/17 23:00:35;;;;;;;;;;;;;;;28.05;52.74;97656.55;608893;233;66850;-67
2022/12/17 23:03:03;;;;;;;;;;;;;;;28.04;51.88;97665.73;608861;233;66885;-67
2022/12/17 23:05:31;;;;;;;;;;;;;;;28.03;53.48;97664.14;608870;233;65052;-67
2022/12/17 23:07:59;;;;;;;;;;;;;;;28.01;52.11;97663.64;608839;233;66987;-67
2022/12/17 23:10:27;;;;;;;;;;;;;;;28.00;52.44;97664.75;608840;233;66870;-67
2022/12/17 23:12:54;;;;;;;;;;;;;;;28.01;51.16;97681.75;608855;233;65060;-67
2022/12/17 23:15:30;;;;;;;;;;;;;;;28.00;52.64;97674.77;608900;233;67201;-67
2022/12/17 23:17:59;;;;;;;;;;;;;;;27.99;52.05;97681.25;608799;233;67318;-67
2022/12/17 23:20:27;;;;;;;;;;;;;;;27.98;52.23;97679.66;608839;233;62917;-67
2022/12/17 23:22:55;;;;;;;;;;;;;;;27.96;52.63;97681.85;608850;233;66876;-67
2022/12/17 23:25:23;;;;;;;;;;;;;;;27.95;51.83;97680.27;608834;233;64932;-67
2022/12/17 23:27:51;;;;;;;;;;;;;;;27.94;51.75;97684.87;609152;232;64860;-67
2022/12/17 23:30:19;;;;;;;;;;;;;;;27.92;53.25;97681.66;610481;232;64955;-67
2022/12/17 23:32:47;;;;;;;;;;;;;;;27.91;52.44;97680.08;610463;232;67555;-67
2022/12/17 23:35:15;;;;;;;;;;;;;;;27.91;51.87;97692.75;610462;232;65055;-67
2022/12/17 23:37:42;;;;;;;;;;;;;;;27.89;52.79;97688.46;610500;232;67000;-67
2022/12/17 23:40:10;;;;;;;;;;;;;;;27.88;50.32;97694.16;610515;232;64873;-67
2022/12/17 23:42:38;;;;;;;;;;;;;;;27.87;53.02;97693.36;610441;232;65075;-67
2022/12/17 23:45:06;;;;;;;;;;;;;;;27.86;52.19;97699.08;610417;232;67442;-67
2022/12/17 23:47:33;;;;;;;;;;;;;;;27.85;52.09;97694.75;610446;232;67084;-67
2022/12/17 23:50:01;;;;;;;;;;;;;;;27.82;54.05;97698.85;610493;232;65035;-67
2022/12/17 23:52:28;;;;;;;;;;;;;;;27.84;52.72;97695.86;610476;232;67310;-67
2022/12/17 23:54:56;;;;;;;;;;;;;;;27.82;54.04;97700.76;610473;232;67035;-67
2022/12/17 23:57:23;;;;;;;;;;;;;;;27.81;54.36;97697.27;610479;232;65033;-67
2022/12/17 23:59:51;;;;;;;;;;;;;;;27.81;52.68;97704.57;610498;232;67199;-67
